Bury, United Kingdom
Current Conditions -  °F | °C
As of 9:20 AM on Friday 24 Oct 2014 (Local Time) from EGCC Reporting Station
Drizzle Drizzle  
Wind Chill: 11°   Ceiling: 2200
Heat Index: 11°   Visibility: 4mi
Dew Point: 11°   Wind: 6mph
Humidity: 100%   Direction: 230°SW
Pressure: 29.88"   Gusts: NA
Location:  53.59°N, 2.3°W
Report Text: EGCC 240820Z 23005KT 200V260 6000 -DZ FEW002 BKN022 11/11 Q1012 RERA REDZ NOSIG
Loading
Personal Weather Stations






























Interactive Weather Map
Tropical Storm Tracking
New forecast layout! Learn more

10-Day Weather Forecast

Advertisements
Track Severe Weather on mobile